createdAt,value
2018-01-12T00:00:54.236Z,99.99
2018-01-12T00:01:54.228Z,99.99
2018-01-12T00:02:54.687Z,99.99
2018-01-12T00:03:54.213Z,99.99
2018-01-12T00:04:54.206Z,99.99
2018-01-12T00:05:54.198Z,99.99
2018-01-12T00:06:53.936Z,99.99
2018-01-12T00:07:54.331Z,99.99
2018-01-12T00:08:53.922Z,99.99
2018-01-12T00:09:54.166Z,99.99
2018-01-12T00:10:54.158Z,99.99
2018-01-12T00:11:54.153Z,99.99
2018-01-12T00:12:54.290Z,99.99
2018-01-12T00:13:53.880Z,99.99
2018-01-12T00:14:53.871Z,99.99
2018-01-12T00:15:54.115Z,99.99
2018-01-12T00:16:54.116Z,99.99
2018-01-12T00:17:54.099Z,99.99
2018-01-12T00:18:54.091Z,99.99
2018-01-12T00:19:54.074Z,99.99
2018-01-12T00:20:54.074Z,99.99
2018-01-12T00:21:53.813Z,99.99
2018-01-12T00:22:54.058Z,99.99
2018-01-12T00:23:54.063Z,99.99
2018-01-12T00:24:54.045Z,99.99
2018-01-12T00:25:54.039Z,99.99
2018-01-12T00:26:53.772Z,99.99
2018-01-12T00:27:54.015Z,99.99
2018-01-12T00:28:54.010Z,99.99
2018-01-12T00:29:54.003Z,99.99
2018-01-12T00:30:53.997Z,99.99
2018-01-12T00:31:53.989Z,99.99
2018-01-12T00:32:53.724Z,99.99
2018-01-12T00:33:53.970Z,99.99
2018-01-12T00:34:53.964Z,99.99
2018-01-12T00:35:53.699Z,99.99
2018-01-12T00:36:53.947Z,99.99
2018-01-12T00:37:53.690Z,99.99
2018-01-12T00:38:53.675Z,99.99
2018-01-12T00:39:53.925Z,99.99
2018-01-12T00:40:53.916Z,99.99
2018-01-12T00:41:53.904Z,99.99
2018-01-12T00:42:53.894Z,99.99
2018-01-12T00:43:53.891Z,99.99
2018-01-12T00:44:53.881Z,99.99
2018-01-12T00:45:53.874Z,99.99
2018-01-12T00:46:53.871Z,99.99
2018-01-12T00:47:53.864Z,99.99
2018-01-12T00:48:53.857Z,99.99
2018-01-12T00:49:53.589Z,99.99
2018-01-12T00:50:53.587Z,99.99
2018-01-12T00:51:53.822Z,99.99
2018-01-12T00:52:53.821Z,99.99
2018-01-12T00:53:53.809Z,99.99
2018-01-12T00:54:53.804Z,99.99
2018-01-12T00:55:53.794Z,99.99
2018-01-12T00:56:53.787Z,99.99
2018-01-12T00:57:53.528Z,99.99
2018-01-12T00:58:53.516Z,99.99
2018-01-12T00:59:53.512Z,99.99
2018-01-12T01:00:53.760Z,99.99
2018-01-12T01:01:53.494Z,99.99
2018-01-12T01:02:53.743Z,99.99
2018-01-12T01:03:54.027Z,99.99
2018-01-12T01:04:53.470Z,99.99
2018-01-12T01:05:53.712Z,99.99
2018-01-12T01:06:53.711Z,99.99
2018-01-12T01:07:53.700Z,99.99
2018-01-12T01:08:53.691Z,99.99
2018-01-12T01:09:53.681Z,99.99
2018-01-12T01:10:53.678Z,99.99
2018-01-12T01:11:53.668Z,99.99
2018-01-12T01:12:53.659Z,99.99
2018-01-12T01:13:53.650Z,99.99
2018-01-12T01:14:53.642Z,99.99
2018-01-12T01:15:53.647Z,99.99
2018-01-12T01:16:53.628Z,99.99
2018-01-12T01:17:53.626Z,99.99
2018-01-12T01:18:53.867Z,99.99
2018-01-12T01:19:53.625Z,99.99
2018-01-12T01:20:53.351Z,99.99
2018-01-12T01:21:53.595Z,99.99
2018-01-12T01:22:53.331Z,99.99
2018-01-12T01:23:53.579Z,99.99
2018-01-12T01:24:53.568Z,99.99
2018-01-12T01:25:53.556Z,99.99
2018-01-12T01:26:53.554Z,99.99
2018-01-12T01:27:53.292Z,99.99
2018-01-12T01:28:53.593Z,99.99
2018-01-12T01:29:53.285Z,99.99
2018-01-12T01:30:53.522Z,99.99
2018-01-12T01:31:53.264Z,99.99
2018-01-12T01:32:53.503Z,99.99
2018-01-12T01:33:53.947Z,99.99
2018-01-12T01:34:53.495Z,99.99
2018-01-12T01:35:53.230Z,99.99
2018-01-12T01:36:53.476Z,99.99
2018-01-12T01:37:53.228Z,99.99
2018-01-12T01:38:53.462Z,99.99
2018-01-12T01:39:53.208Z,99.99
2018-01-12T01:40:53.444Z,99.99
2018-01-12T01:41:53.444Z,99.99
2018-01-12T01:42:53.432Z,99.99
2018-01-12T01:43:53.420Z,99.99
2018-01-12T01:44:53.426Z,99.99
2018-01-12T01:45:53.412Z,99.99
2018-01-12T01:46:53.400Z,99.99
2018-01-12T01:47:53.401Z,99.99
2018-01-12T01:48:53.384Z,99.99
2018-01-12T01:49:53.375Z,99.99
2018-01-12T01:50:53.365Z,99.99
2018-01-12T01:51:53.365Z,99.99
2018-01-12T01:52:53.349Z,99.99
2018-01-12T01:53:53.346Z,99.99
2018-01-12T01:54:53.346Z,99.99
2018-01-12T01:55:53.077Z,99.99
2018-01-12T01:56:53.068Z,99.99
2018-01-12T01:57:53.062Z,99.99
2018-01-12T01:58:53.054Z,99.99
2018-01-12T01:59:53.298Z,99.99
2018-01-12T02:00:53.296Z,99.99
2018-01-12T02:01:53.285Z,99.99
2018-01-12T02:02:53.334Z,99.99
2018-01-12T02:03:53.350Z,99.99
2018-01-12T02:04:53.261Z,99.99
2018-01-12T02:05:53.258Z,99.99
2018-01-12T02:06:53.254Z,99.99
2018-01-12T02:07:53.243Z,99.99
2018-01-12T02:08:53.242Z,99.99
2018-01-12T02:09:53.248Z,99.99
2018-01-12T02:10:52.965Z,99.99
2018-01-12T02:11:53.217Z,99.99
2018-01-12T02:12:52.950Z,99.99
2018-01-12T02:13:53.193Z,99.99
2018-01-12T02:14:53.186Z,99.99
2018-01-12T02:15:53.182Z,99.99
2018-01-12T02:16:53.192Z,99.99
2018-01-12T02:17:52.923Z,99.99
2018-01-12T02:18:53.163Z,99.99
2018-01-12T02:19:52.896Z,99.99
2018-01-12T02:20:53.141Z,99.99
2018-01-12T02:21:52.888Z,99.99
2018-01-12T02:22:52.877Z,99.99
2018-01-12T02:23:52.880Z,99.99
2018-01-12T02:24:52.878Z,99.99
2018-01-12T02:25:52.858Z,99.99
2018-01-12T02:26:52.897Z,99.99
2018-01-12T02:27:53.099Z,99.99
2018-01-12T02:28:52.849Z,99.99
2018-01-12T02:29:53.080Z,99.99
2018-01-12T02:30:53.068Z,99.99
2018-01-12T02:31:53.071Z,99.99
2018-01-12T02:32:53.053Z,99.99
2018-01-12T02:33:53.055Z,99.99
2018-01-12T02:34:53.035Z,99.99
2018-01-12T02:35:53.038Z,99.99
2018-01-12T02:36:53.024Z,99.99
2018-01-12T02:37:53.014Z,99.99
2018-01-12T02:38:53.011Z,99.99
2018-01-12T02:39:52.997Z,99.99
2018-01-12T02:40:52.991Z,99.99
2018-01-12T02:41:52.735Z,99.99
2018-01-12T02:42:52.984Z,99.99
2018-01-12T02:43:52.985Z,99.99
2018-01-12T02:44:52.715Z,99.99
2018-01-12T02:45:52.954Z,99.99
2018-01-12T02:46:52.947Z,99.99
2018-01-12T02:47:52.953Z,99.99
2018-01-12T02:48:52.940Z,99.99
2018-01-12T02:49:52.939Z,99.99
2018-01-12T02:50:52.919Z,99.99
2018-01-12T02:51:52.926Z,99.99
2018-01-12T02:52:52.905Z,99.99
2018-01-12T02:53:52.895Z,99.99
2018-01-12T02:54:52.888Z,99.99
2018-01-12T02:55:52.886Z,99.99
2018-01-12T02:56:52.876Z,99.99
2018-01-12T02:57:52.868Z,99.99
2018-01-12T02:58:52.871Z,99.99
2018-01-12T02:59:52.858Z,99.99
2018-01-12T03:00:52.841Z,99.99
2018-01-12T03:01:52.588Z,99.99
2018-01-12T03:02:52.830Z,99.99
2018-01-12T03:03:52.826Z,99.99
2018-01-12T03:04:54.063Z,99.99
2018-01-12T03:05:52.557Z,99.99
2018-01-12T03:06:52.809Z,99.99
2018-01-12T03:07:52.795Z,99.99
2018-01-12T03:08:52.780Z,99.99
2018-01-12T03:09:52.774Z,99.99
2018-01-12T03:10:52.772Z,99.99
2018-01-12T03:11:52.519Z,99.99
2018-01-12T03:12:52.766Z,99.99
2018-01-12T03:13:52.749Z,99.99
2018-01-12T03:14:52.506Z,99.99
2018-01-12T03:15:52.791Z,99.99
2018-01-12T03:16:52.733Z,99.99
2018-01-12T03:17:52.725Z,99.99
2018-01-12T03:18:52.721Z,99.99
2018-01-12T03:19:52.709Z,99.99
2018-01-12T03:20:52.455Z,99.99
2018-01-12T03:21:52.691Z,99.99
2018-01-12T03:22:52.686Z,99.99
2018-01-12T03:23:52.427Z,99.99
2018-01-12T03:24:52.673Z,99.99
2018-01-12T03:25:52.661Z,99.99
2018-01-12T03:26:52.656Z,99.99
2018-01-12T03:27:52.663Z,99.99
2018-01-12T03:28:52.648Z,99.99
2018-01-12T03:29:52.625Z,99.99
2018-01-12T03:30:52.623Z,99.99
2018-01-12T03:31:52.614Z,99.99
2018-01-12T03:32:52.605Z,99.99
2018-01-12T03:33:52.622Z,99.99
2018-01-12T03:34:54.642Z,99.99
2018-01-12T03:35:52.584Z,99.99
2018-01-12T03:36:52.335Z,99.99
2018-01-12T03:37:52.567Z,99.99
2018-01-12T03:38:52.560Z,99.99
2018-01-12T03:39:52.561Z,99.99
2018-01-12T03:40:52.543Z,99.99
2018-01-12T03:41:52.555Z,99.99
2018-01-12T03:42:52.531Z,99.99
2018-01-12T03:43:52.528Z,99.99
2018-01-12T03:44:52.515Z,99.99
2018-01-12T03:45:52.252Z,99.99
2018-01-12T03:46:52.503Z,99.99
2018-01-12T03:47:52.491Z,99.99
2018-01-12T03:48:52.487Z,99.99
2018-01-12T03:49:52.475Z,99.99
2018-01-12T03:50:52.468Z,99.99
2018-01-12T03:51:52.470Z,99.99
2018-01-12T03:52:52.202Z,99.99
2018-01-12T03:53:52.448Z,99.99
2018-01-12T03:54:52.437Z,99.99
2018-01-12T03:55:52.432Z,99.99
2018-01-12T03:56:52.436Z,99.99
2018-01-12T03:57:52.417Z,99.99
2018-01-12T03:58:52.153Z,99.99
2018-01-12T03:59:52.407Z,99.99
2018-01-12T04:00:52.142Z,99.99
2018-01-12T04:01:52.385Z,99.99
2018-01-12T04:02:52.378Z,99.99
2018-01-12T04:03:52.385Z,99.99
2018-01-12T04:04:52.364Z,99.99
2018-01-12T04:05:52.357Z,99.99
2018-01-12T04:06:52.361Z,99.99
2018-01-12T04:07:52.372Z,99.99
2018-01-12T04:08:52.088Z,99.99
2018-01-12T04:09:52.327Z,99.99
2018-01-12T04:10:52.324Z,99.99
2018-01-12T04:11:52.315Z,99.99
2018-01-12T04:12:52.353Z,99.99
2018-01-12T04:13:52.304Z,99.99
2018-01-12T04:14:52.289Z,99.99
2018-01-12T04:15:52.283Z,99.99
2018-01-12T04:16:52.277Z,99.99
2018-01-12T04:17:52.269Z,99.99
2018-01-12T04:18:52.276Z,99.99
2018-01-12T04:19:52.001Z,99.99
2018-01-12T04:20:53.044Z,99.99
2018-01-12T04:21:51.987Z,99.99
2018-01-12T04:22:52.235Z,99.99
2018-01-12T04:23:52.229Z,99.99
2018-01-12T04:24:52.221Z,99.99
2018-01-12T04:25:52.209Z,99.99
2018-01-12T04:26:52.201Z,99.99
2018-01-12T04:27:52.190Z,99.99
2018-01-12T04:28:52.194Z,99.99
2018-01-12T04:29:52.179Z,99.99
2018-01-12T04:30:52.171Z,99.99
2018-01-12T04:31:52.162Z,99.99
2018-01-12T04:32:52.153Z,99.99
2018-01-12T04:33:52.144Z,99.99
2018-01-12T04:34:52.143Z,99.99
2018-01-12T04:35:52.685Z,99.99
2018-01-12T04:36:52.123Z,99.99
2018-01-12T04:37:52.114Z,99.99
2018-01-12T04:38:52.110Z,99.99
2018-01-12T04:39:51.854Z,99.99
2018-01-12T04:40:52.096Z,99.99
2018-01-12T04:41:51.838Z,99.99
2018-01-12T04:42:52.084Z,99.99
2018-01-12T04:43:52.068Z,99.99
2018-01-12T04:44:51.811Z,99.99
2018-01-12T04:45:51.808Z,99.99
2018-01-12T04:46:52.065Z,99.99
2018-01-12T04:47:52.041Z,99.99
2018-01-12T04:48:52.040Z,99.99
2018-01-12T04:49:52.020Z,99.99
2018-01-12T04:50:52.014Z,99.99
2018-01-12T04:51:51.755Z,99.99
2018-01-12T04:52:51.746Z,99.99
2018-01-12T04:53:52.010Z,99.99
2018-01-12T04:54:51.732Z,99.99
2018-01-12T04:55:51.977Z,99.99
2018-01-12T04:56:51.974Z,99.99
2018-01-12T04:57:51.964Z,99.99
2018-01-12T04:58:51.961Z,99.99
2018-01-12T04:59:51.951Z,99.99
2018-01-12T05:00:51.943Z,99.99
2018-01-12T05:01:51.937Z,99.99
2018-01-12T05:02:51.687Z,99.99
2018-01-12T05:03:51.946Z,99.99
2018-01-12T05:04:51.658Z,99.99
2018-01-12T05:05:51.916Z,99.99
2018-01-12T05:06:51.897Z,99.99
2018-01-12T05:07:51.890Z,99.99
2018-01-12T05:08:51.913Z,99.99
2018-01-12T05:09:51.878Z,99.99
2018-01-12T05:10:51.866Z,99.99
2018-01-12T05:11:51.857Z,99.99
2018-01-12T05:12:51.854Z,99.99
2018-01-12T05:13:51.843Z,99.99
2018-01-12T05:14:51.836Z,99.99
2018-01-12T05:15:51.826Z,99.99
2018-01-12T05:16:51.594Z,99.99
2018-01-12T05:17:51.815Z,99.99
2018-01-12T05:18:51.804Z,99.99
2018-01-12T05:19:51.796Z,99.99
2018-01-12T05:20:51.790Z,99.99
2018-01-12T05:21:52.900Z,99.99
2018-01-12T05:22:51.534Z,99.99
2018-01-12T05:23:51.762Z,99.99
2018-01-12T05:24:51.757Z,99.99
2018-01-12T05:25:51.745Z,99.99
2018-01-12T05:26:51.743Z,99.99
2018-01-12T05:27:51.805Z,99.99
2018-01-12T05:28:51.724Z,99.99
2018-01-12T05:29:51.718Z,99.99
2018-01-12T05:30:51.706Z,99.99
2018-01-12T05:31:51.696Z,99.99
2018-01-12T05:32:51.443Z,99.99
2018-01-12T05:33:51.682Z,99.99
2018-01-12T05:34:51.676Z,99.99
2018-01-12T05:35:51.670Z,99.99
2018-01-12T05:36:55.166Z,99.99
2018-01-12T05:37:51.661Z,99.99
2018-01-12T05:38:51.656Z,99.99
2018-01-12T05:39:51.637Z,99.99
2018-01-12T05:40:51.628Z,99.99
2018-01-12T05:41:51.621Z,99.99
2018-01-12T05:42:51.621Z,99.99
2018-01-12T05:43:51.359Z,99.99
2018-01-12T05:44:51.611Z,99.99
2018-01-12T05:45:51.349Z,99.99
2018-01-12T05:46:51.606Z,99.99
2018-01-12T05:47:51.582Z,99.99
2018-01-12T05:48:51.570Z,99.99
2018-01-12T05:49:51.565Z,99.99
2018-01-12T05:50:51.550Z,99.99
2018-01-12T05:51:51.544Z,99.99
2018-01-12T05:52:51.543Z,99.99
2018-01-12T05:53:51.534Z,99.99
2018-01-12T05:54:51.275Z,99.99
2018-01-12T05:55:51.514Z,99.99
2018-01-12T05:56:51.507Z,99.99
2018-01-12T05:57:51.499Z,99.99
2018-01-12T05:58:51.242Z,99.99
2018-01-12T05:59:51.482Z,99.99
2018-01-12T06:00:51.481Z,99.99
2018-01-12T06:01:51.468Z,99.99
2018-01-12T06:02:51.459Z,99.99
2018-01-12T06:03:51.454Z,99.99
2018-01-12T06:04:51.192Z,99.99
2018-01-12T06:05:51.494Z,99.99
2018-01-12T06:06:51.428Z,99.99
2018-01-12T06:07:52.784Z,99.99
2018-01-12T06:08:51.410Z,99.99
2018-01-12T06:09:51.408Z,99.99
2018-01-12T06:10:51.396Z,99.99
2018-01-12T06:11:51.141Z,99.99
2018-01-12T06:12:51.387Z,99.99
2018-01-12T06:13:51.369Z,99.99
2018-01-12T06:14:51.110Z,99.99
2018-01-12T06:15:51.365Z,99.99
2018-01-12T06:16:51.096Z,99.99
2018-01-12T06:17:51.349Z,99.99
2018-01-12T06:18:51.330Z,99.99
2018-01-12T06:19:51.329Z,99.99
2018-01-12T06:20:51.318Z,99.99
2018-01-12T06:21:51.316Z,99.99
2018-01-12T06:22:51.052Z,99.99
2018-01-12T06:23:51.040Z,99.99
2018-01-12T06:24:51.292Z,99.99
2018-01-12T06:25:51.278Z,99.99
2018-01-12T06:26:51.267Z,99.99
2018-01-12T06:27:51.261Z,99.99
2018-01-12T06:28:51.248Z,99.99
2018-01-12T06:29:50.999Z,99.99
2018-01-12T06:30:51.244Z,99.99
2018-01-12T06:31:51.246Z,99.99
2018-01-12T06:32:50.992Z,99.99
2018-01-12T06:33:51.214Z,99.99
2018-01-12T06:34:51.200Z,99.99
2018-01-12T06:35:51.194Z,99.99
2018-01-12T06:36:51.186Z,99.99
2018-01-12T06:37:51.180Z,99.99
2018-01-12T06:38:50.917Z,99.99
2018-01-12T06:39:51.161Z,99.99
2018-01-12T06:40:51.157Z,99.99
2018-01-12T06:41:51.149Z,99.99
2018-01-12T06:42:50.889Z,99.99
2018-01-12T06:43:50.885Z,99.99
2018-01-12T06:44:51.132Z,99.99
2018-01-12T06:45:51.116Z,99.99
2018-01-12T06:46:51.109Z,99.99
2018-01-12T06:47:50.849Z,99.99
2018-01-12T06:48:51.101Z,99.99
2018-01-12T06:49:51.085Z,99.99
2018-01-12T06:50:51.077Z,99.99
2018-01-12T06:51:51.066Z,99.99
2018-01-12T06:52:51.060Z,99.99
2018-01-12T06:53:51.056Z,99.99
2018-01-12T06:54:51.044Z,99.99
2018-01-12T06:55:50.785Z,99.99
2018-01-12T06:56:50.779Z,99.99
2018-01-12T06:57:51.021Z,99.99
2018-01-12T06:58:51.013Z,99.99
2018-01-12T06:59:51.005Z,99.99
2018-01-12T07:00:51.049Z,99.99
2018-01-12T07:01:50.994Z,99.99
2018-01-12T07:02:50.986Z,99.99
2018-01-12T07:03:50.979Z,99.99
2018-01-12T07:04:50.981Z,99.99
2018-01-12T07:05:50.962Z,99.99
2018-01-12T07:06:50.950Z,99.99
2018-01-12T07:07:50.952Z,99.99
2018-01-12T07:08:52.738Z,99.99
2018-01-12T07:09:50.934Z,99.99
2018-01-12T07:10:50.923Z,99.99
2018-01-12T07:11:50.923Z,99.99
2018-01-12T07:12:50.652Z,99.99
2018-01-12T07:13:50.899Z,99.99
2018-01-12T07:14:50.901Z,99.99
2018-01-12T07:15:50.882Z,99.99
2018-01-12T07:16:50.878Z,99.99
2018-01-12T07:17:50.864Z,99.99
2018-01-12T07:18:50.855Z,99.99
2018-01-12T07:19:50.856Z,99.99
2018-01-12T07:20:50.592Z,99.99
2018-01-12T07:21:50.832Z,99.99
2018-01-12T07:22:50.822Z,99.99
2018-01-12T07:23:52.966Z,99.99
2018-01-12T07:24:50.810Z,99.99
2018-01-12T07:25:50.548Z,99.99
2018-01-12T07:26:50.793Z,99.99
2018-01-12T07:27:50.787Z,99.99
2018-01-12T07:28:50.774Z,99.99
2018-01-12T07:29:50.770Z,99.99
2018-01-12T07:30:50.764Z,99.99
2018-01-12T07:31:50.508Z,99.99
2018-01-12T07:32:50.744Z,99.99
2018-01-12T07:33:50.497Z,99.99
2018-01-12T07:34:50.729Z,99.99
2018-01-12T07:35:50.479Z,99.99
2018-01-12T07:36:50.717Z,99.99
2018-01-12T07:37:50.706Z,99.99
2018-01-12T07:38:50.696Z,99.99
2018-01-12T07:39:50.689Z,99.99
2018-01-12T07:40:50.683Z,99.99
2018-01-12T07:41:50.674Z,99.99
2018-01-12T07:42:50.427Z,99.99
2018-01-12T07:43:50.409Z,99.99
2018-01-12T07:44:50.662Z,99.99
2018-01-12T07:45:50.642Z,99.99
2018-01-12T07:46:50.384Z,99.99
2018-01-12T07:47:50.633Z,99.99
2018-01-12T07:48:50.366Z,99.99
2018-01-12T07:49:50.618Z,99.99
2018-01-12T07:50:50.361Z,99.99
2018-01-12T07:51:50.603Z,99.99
2018-01-12T07:52:50.603Z,99.99
2018-01-12T07:53:50.587Z,99.99
2018-01-12T07:54:50.575Z,99.99
2018-01-12T07:55:50.567Z,99.99
2018-01-12T07:56:50.567Z,99.99
2018-01-12T07:57:50.550Z,99.99
2018-01-12T07:58:50.557Z,99.99
2018-01-12T07:59:50.532Z,99.99
2018-01-12T08:00:50.282Z,99.99
2018-01-12T08:01:50.272Z,99.99
2018-01-12T08:02:50.526Z,99.99
2018-01-12T08:03:50.518Z,99.99
2018-01-12T08:04:50.503Z,99.99
2018-01-12T08:05:50.501Z,99.99
2018-01-12T08:06:50.485Z,99.99
2018-01-12T08:07:50.477Z,99.99
2018-01-12T08:08:50.516Z,99.99
2018-01-12T08:09:50.205Z,99.99
2018-01-12T08:10:50.451Z,99.99
2018-01-12T08:11:50.451Z,99.99
2018-01-12T08:12:50.450Z,99.99
2018-01-12T08:13:50.424Z,99.99
2018-01-12T08:14:50.185Z,99.99
2018-01-12T08:15:50.158Z,99.77
2018-01-12T08:16:50.404Z,99.99
2018-01-12T08:17:50.148Z,99.87
2018-01-12T08:18:50.392Z,99.68
2018-01-12T08:19:50.133Z,99.99
2018-01-12T08:20:50.380Z,99.91
2018-01-12T08:21:50.364Z,99.16
2018-01-12T08:22:50.371Z,99.44
2018-01-12T08:23:50.357Z,99.06
2018-01-12T08:24:50.345Z,98.78
2018-01-12T08:25:50.335Z,98.49
2018-01-12T08:26:50.081Z,98.59
2018-01-12T08:27:50.075Z,97.83
2018-01-12T08:28:50.326Z,97.92
2018-01-12T08:29:50.308Z,97.17
2018-01-12T08:30:50.301Z,96.5
2018-01-12T08:31:50.298Z,95.93
2018-01-12T08:32:50.286Z,95.27
2018-01-12T08:33:50.290Z,95.74
2018-01-12T08:34:50.273Z,95.55
2018-01-12T08:35:50.263Z,95.07
2018-01-12T08:36:50.007Z,95.84
2018-01-12T08:37:50.253Z,95.55
2018-01-12T08:38:50.246Z,95.07
2018-01-12T08:39:50.486Z,95.65
2018-01-12T08:40:49.977Z,96.22
2018-01-12T08:41:50.235Z,96.12
2018-01-12T08:42:49.963Z,96.69
2018-01-12T08:43:49.956Z,96.31
2018-01-12T08:44:49.949Z,95.07
2018-01-12T08:45:49.942Z,94.89
2018-01-12T08:46:50.188Z,94.6
2018-01-12T08:47:50.184Z,95.07
2018-01-12T08:48:50.185Z,95.93
2018-01-12T08:49:49.916Z,94.89
2018-01-12T08:50:49.909Z,94.79
2018-01-12T08:51:50.150Z,94.51
2018-01-12T08:52:50.157Z,94.51
2018-01-12T08:53:50.136Z,94.23
2018-01-12T08:54:50.136Z,94.23
2018-01-12T08:55:50.123Z,93.23
2018-01-12T08:56:50.120Z,93.37
2018-01-12T08:57:50.113Z,94.23
2018-01-12T08:58:50.105Z,94.03
2018-01-12T08:59:49.847Z,94.13
2018-01-12T09:00:50.106Z,93.46
2018-01-12T09:01:49.836Z,94.08
2018-01-12T09:02:49.831Z,93.89
2018-01-12T09:03:50.074Z,93.7
2018-01-12T09:04:50.095Z,93.23
2018-01-12T09:05:50.057Z,92.47
2018-01-12T09:06:50.053Z,92.56
2018-01-12T09:07:50.052Z,92.28
2018-01-12T09:08:49.789Z,91.42
2018-01-12T09:09:50.033Z,90.95
2018-01-12T09:10:50.026Z,91.24
2018-01-12T09:11:50.028Z,91.04
2018-01-12T09:12:50.028Z,90.57
2018-01-12T09:13:50.012Z,90.95
2018-01-12T09:14:50.008Z,91.24
2018-01-12T09:15:50.011Z,91.24
2018-01-12T09:16:50.024Z,90.38
2018-01-12T09:17:49.732Z,89.81
2018-01-12T09:18:49.985Z,90.47
2018-01-12T09:19:49.717Z,89.72
2018-01-12T09:20:49.963Z,90.28
2018-01-12T09:21:49.707Z,90.47
2018-01-12T09:22:49.953Z,91.42
2018-01-12T09:23:49.707Z,91.04
2018-01-12T09:24:49.937Z,91.52
2018-01-12T09:25:49.687Z,91.61
2018-01-12T09:26:49.929Z,91.89
2018-01-12T09:27:49.917Z,91.33
2018-01-12T09:28:49.913Z,91.42
2018-01-12T09:29:49.921Z,91.04
2018-01-12T09:30:49.920Z,90.85
2018-01-12T09:31:49.915Z,91.52
2018-01-12T09:32:49.906Z,90.47
2018-01-12T09:33:49.882Z,90.47
2018-01-12T09:34:49.876Z,91.8
2018-01-12T09:35:49.632Z,92.18
2018-01-12T09:36:49.871Z,91.42
2018-01-12T09:37:49.605Z,91.71
2018-01-12T09:38:49.868Z,90.95
2018-01-12T09:39:49.602Z,90.95
2018-01-12T09:40:51.643Z,91.04
2018-01-12T09:41:49.594Z,91.04
2018-01-12T09:42:49.572Z,91.42
2018-01-12T09:43:49.821Z,91.14
2018-01-12T09:44:49.814Z,90.47
2018-01-12T09:45:49.807Z,91.04
2018-01-12T09:46:49.814Z,91.14
2018-01-12T09:47:49.794Z,90.19
2018-01-12T09:48:49.792Z,89.14
2018-01-12T09:49:49.543Z,89.33
2018-01-12T09:50:49.544Z,89.24
2018-01-12T09:51:49.513Z,90.66
2018-01-12T09:52:49.612Z,90.76
2018-01-12T09:53:49.758Z,90.57
2018-01-12T09:54:49.748Z,90.76
2018-01-12T09:55:49.746Z,90.57
2018-01-12T09:56:49.734Z,91.33
2018-01-12T09:57:49.744Z,90.57
2018-01-12T09:58:49.719Z,90.66
2018-01-12T09:59:49.714Z,91.04
2018-01-12T10:00:49.712Z,91.24
2018-01-12T10:01:49.703Z,91.52
2018-01-12T10:02:49.693Z,91.52
2018-01-12T10:03:49.692Z,91.14
2018-01-12T10:04:49.714Z,90.47
2018-01-12T10:05:50.480Z,90.85
2018-01-12T10:06:49.672Z,89.62
2018-01-12T10:07:49.660Z,89.81
2018-01-12T10:08:49.406Z,89.72
2018-01-12T10:09:49.411Z,90.47
2018-01-12T10:10:49.646Z,90.66
2018-01-12T10:11:49.646Z,89.72
2018-01-12T10:12:49.634Z,88.76
2018-01-12T10:13:49.627Z,88.2
2018-01-12T10:14:49.620Z,88.39
2018-01-12T10:15:49.616Z,89.14
2018-01-12T10:16:49.608Z,88.48
2018-01-12T10:17:49.598Z,88.48
2018-01-12T10:18:49.396Z,88.15
2018-01-12T10:19:49.665Z,87.34
2018-01-12T10:20:49.584Z,88.2
2018-01-12T10:21:49.325Z,87.82
2018-01-12T10:22:49.571Z,88.2
2018-01-12T10:52:45.132Z,87.34
2018-01-12T10:53:42.428Z,87.62
2018-01-12T10:54:42.673Z,89.14
2018-01-12T10:55:42.660Z,90.24
2018-01-12T10:56:42.636Z,90.14
2018-01-12T10:57:42.371Z,90.43
2018-01-12T10:58:42.621Z,90.52
2018-01-12T10:59:42.610Z,92.42
2018-01-12T11:00:42.341Z,91.47
2018-01-12T11:01:42.606Z,91.85
2018-01-12T11:02:42.591Z,90.9
2018-01-12T11:03:42.577Z,91.19
2018-01-12T11:04:42.561Z,91.85
2018-01-12T11:05:42.301Z,91.94
2018-01-12T11:06:42.289Z,92.61
2018-01-12T11:07:42.286Z,92.14
2018-01-12T11:08:42.542Z,92.14
2018-01-12T11:09:42.524Z,91.24
2018-01-12T11:10:42.520Z,91.33
2018-01-12T11:11:42.532Z,90.47
2018-01-12T11:12:42.251Z,90.47
2018-01-12T11:13:42.501Z,90.57
2018-01-12T11:14:42.234Z,88.81
2018-01-12T11:15:42.484Z,88.15
2018-01-12T11:16:42.527Z,87.86
2018-01-12T11:17:42.474Z,88.15
2018-01-12T11:18:42.467Z,87.67
2018-01-12T11:19:42.455Z,87.01
2018-01-12T11:20:42.197Z,87.57
2018-01-12T11:21:42.446Z,86.72
2018-01-12T11:22:43.285Z,86.24
2018-01-12T11:23:42.181Z,85.96
2018-01-12T11:24:42.433Z,85.3
2018-01-12T11:25:42.469Z,85.01
2018-01-12T11:26:42.430Z,85.49
2018-01-12T11:27:42.409Z,86.34
2018-01-12T11:28:42.398Z,86.05
2018-01-12T11:29:42.398Z,85.3
2018-01-12T11:30:42.397Z,85.86
2018-01-12T11:31:42.390Z,85.2
2018-01-12T11:32:42.378Z,85.34
2018-01-12T11:33:42.375Z,84.82
2018-01-12T11:34:42.367Z,84.72
2018-01-12T11:35:42.435Z,84.77
2018-01-12T11:36:42.110Z,84.91
2018-01-12T11:37:42.109Z,84.48
2018-01-12T11:38:42.108Z,85.01
2018-01-12T11:39:42.108Z,85.2
2018-01-12T11:40:42.092Z,85.68
2018-01-12T11:41:42.085Z,86.05
2018-01-12T11:42:42.114Z,85.49
2018-01-12T11:43:42.328Z,84.63
2018-01-12T11:44:42.317Z,85.39
2018-01-12T11:45:42.309Z,85.77
2018-01-12T11:46:42.317Z,86.15
2018-01-12T11:47:42.302Z,85.96
2018-01-12T11:48:42.297Z,86.05
2018-01-12T11:49:42.041Z,85.39
2018-01-12T11:50:42.034Z,85.2
2018-01-12T11:51:42.294Z,85.39
2018-01-12T11:52:42.280Z,85.96
2018-01-12T11:53:42.026Z,85.86
2018-01-12T11:54:42.262Z,85.86
2018-01-12T11:55:42.254Z,85.68
2018-01-12T11:56:42.004Z,85.68
2018-01-12T11:57:42.255Z,85.68
2018-01-12T11:58:42.244Z,85.58
2018-01-12T11:59:42.244Z,85.96
2018-01-12T12:00:42.228Z,85.3
2018-01-12T12:01:42.238Z,84.91
2018-01-12T12:02:42.225Z,85.01
2018-01-12T12:03:41.962Z,85.01
2018-01-12T12:04:41.960Z,84.53
2018-01-12T12:05:41.951Z,85.77
2018-01-12T12:06:41.946Z,85.68
2018-01-12T12:07:42.192Z,85.86
2018-01-12T12:08:42.191Z,86.72
2018-01-12T12:09:42.180Z,87.1
2018-01-12T12:10:42.176Z,86.43
2018-01-12T12:11:42.172Z,86.82
2018-01-12T12:12:41.911Z,86.34
2018-01-12T12:13:41.909Z,86.43
2018-01-12T12:14:41.905Z,86.82
2018-01-12T12:15:41.897Z,86.05
2018-01-12T12:16:41.895Z,85.68
2018-01-12T12:17:41.888Z,86.34
2018-01-12T12:18:42.133Z,87.29
2018-01-12T12:19:42.130Z,87.15
2018-01-12T12:20:42.130Z,88.9
2018-01-12T12:21:41.864Z,88.43
2018-01-12T12:22:42.112Z,87.95
2018-01-12T12:23:42.105Z,87.76
2018-01-12T12:24:42.102Z,87.48
2018-01-12T12:25:41.842Z,87.29
2018-01-12T12:26:41.837Z,87.76
2018-01-12T12:27:42.086Z,88.71
2018-01-12T12:28:42.883Z,87.95
2018-01-12T12:29:42.073Z,87.29
2018-01-12T12:30:42.073Z,87.48
2018-01-12T12:31:42.065Z,88.01
2018-01-12T12:32:41.804Z,88.71
2018-01-12T12:33:41.798Z,89
2018-01-12T12:34:42.042Z,88.53
2018-01-12T12:35:42.042Z,88.76
2018-01-12T12:36:42.033Z,88.76
2018-01-12T12:37:42.024Z,88.48
2018-01-12T12:38:42.023Z,88.86
2018-01-12T12:39:42.027Z,88.95
2018-01-12T12:40:42.008Z,89.09
2018-01-12T12:41:42.014Z,88.9
2018-01-12T12:42:42.008Z,88.43
2018-01-12T12:43:42.803Z,87.86
2018-01-12T12:44:41.749Z,87.67
2018-01-12T12:45:41.982Z,88.43
2018-01-12T12:46:41.976Z,87.86
2018-01-12T12:47:41.730Z,88.24
2018-01-12T12:48:41.982Z,87.82
2018-01-12T12:49:41.960Z,88.57
2018-01-12T12:50:41.709Z,88.76
2018-01-12T12:51:41.949Z,88.95
2018-01-12T12:52:41.949Z,89.53
2018-01-12T12:53:41.948Z,89.24
2018-01-12T12:54:41.940Z,89.43
2018-01-12T12:55:41.689Z,89.53
2018-01-12T12:56:41.674Z,89.53
2018-01-12T12:57:41.677Z,90.28
2018-01-12T12:58:41.674Z,90.19
2018-01-12T12:59:41.657Z,89.67
2018-01-12T13:00:41.919Z,88.9
2018-01-12T13:01:41.668Z,87.86
2018-01-12T13:02:41.896Z,87.48
2018-01-12T13:03:41.923Z,88.15
2018-01-12T13:04:41.897Z,87.1
2018-01-12T13:05:41.893Z,86.72
2018-01-12T13:06:41.609Z,86.82
2018-01-12T13:07:41.620Z,86.53
2018-01-12T13:08:41.614Z,87.38
2018-01-12T13:09:41.617Z,87.38
2018-01-12T13:10:41.860Z,87.76
2018-01-12T13:11:41.829Z,86.72
2018-01-12T13:12:41.605Z,86.82
2018-01-12T13:13:41.593Z,86.34
2018-01-12T13:14:41.577Z,85.96
2018-01-12T13:15:41.577Z,87.01
2018-01-12T13:16:41.558Z,87.38
2018-01-12T13:17:41.812Z,87.95
2018-01-12T13:18:41.822Z,87.95
2018-01-12T13:19:41.795Z,87.76
2018-01-12T13:20:41.551Z,87.48
2018-01-12T13:21:41.785Z,87.01
2018-01-12T13:22:41.786Z,87.67